sensor_id;sensor_type;location;lat;lon;timestamp;P1;durP1;ratioP1;P2;durP2;ratioP2
77868;SDS011;67231;59.144;37.934;2023-04-25T00:00:33;6.38;;;3.40;;
77868;SDS011;67231;59.144;37.934;2023-04-25T00:03:00;6.38;;;3.50;;
77868;SDS011;67231;59.144;37.934;2023-04-25T00:05:26;8.88;;;3.45;;
77868;SDS011;67231;59.144;37.934;2023-04-25T00:07:53;7.20;;;3.90;;
77868;SDS011;67231;59.144;37.934;2023-04-25T00:10:19;7.97;;;3.78;;
77868;SDS011;67231;59.144;37.934;2023-04-25T00:12:46;12.07;;;4.00;;
77868;SDS011;67231;59.144;37.934;2023-04-25T00:15:13;8.77;;;4.30;;
77868;SDS011;67231;59.144;37.934;2023-04-25T00:17:40;10.32;;;4.38;;
77868;SDS011;67231;59.144;37.934;2023-04-25T00:20:06;14.10;;;5.43;;
77868;SDS011;67231;59.144;37.934;2023-04-25T00:22:35;8.02;;;3.90;;
77868;SDS011;67231;59.144;37.934;2023-04-25T00:25:06;8.70;;;4.18;;
77868;SDS011;67231;59.144;37.934;2023-04-25T00:27:32;8.82;;;4.63;;
77868;SDS011;67231;59.144;37.934;2023-04-25T00:29:59;16.60;;;6.20;;
77868;SDS011;67231;59.144;37.934;2023-04-25T00:32:26;25.15;;;9.13;;
77868;SDS011;67231;59.144;37.934;2023-04-25T00:34:52;19.55;;;7.50;;
77868;SDS011;67231;59.144;37.934;2023-04-25T00:37:18;19.38;;;7.72;;
77868;SDS011;67231;59.144;37.934;2023-04-25T00:39:45;17.17;;;7.65;;
77868;SDS011;67231;59.144;37.934;2023-04-25T00:42:11;19.42;;;7.13;;
77868;SDS011;67231;59.144;37.934;2023-04-25T00:44:38;17.60;;;7.30;;
77868;SDS011;67231;59.144;37.934;2023-04-25T00:47:05;15.05;;;7.05;;
77868;SDS011;67231;59.144;37.934;2023-04-25T00:49:32;16.50;;;7.28;;
77868;SDS011;67231;59.144;37.934;2023-04-25T00:51:58;23.20;;;7.15;;
77868;SDS011;67231;59.144;37.934;2023-04-25T00:54:25;24.63;;;7.68;;
77868;SDS011;67231;59.144;37.934;2023-04-25T00:56:51;18.95;;;7.10;;
77868;SDS011;67231;59.144;37.934;2023-04-25T00:59:18;17.88;;;7.28;;
77868;SDS011;67231;59.144;37.934;2023-04-25T01:01:45;11.10;;;5.45;;
77868;SDS011;67231;59.144;37.934;2023-04-25T01:04:12;8.63;;;3.85;;
77868;SDS011;67231;59.144;37.934;2023-04-25T01:06:39;10.25;;;3.67;;
77868;SDS011;67231;59.144;37.934;2023-04-25T01:09:06;10.07;;;3.72;;
77868;SDS011;67231;59.144;37.934;2023-04-25T01:11:33;7.07;;;3.78;;
77868;SDS011;67231;59.144;37.934;2023-04-25T01:13:59;7.20;;;3.90;;
77868;SDS011;67231;59.144;37.934;2023-04-25T01:16:27;6.32;;;3.85;;
77868;SDS011;67231;59.144;37.934;2023-04-25T01:18:53;7.13;;;4.10;;
77868;SDS011;67231;59.144;37.934;2023-04-25T01:21:20;5.88;;;3.30;;
77868;SDS011;67231;59.144;37.934;2023-04-25T01:23:47;7.72;;;3.70;;
77868;SDS011;67231;59.144;37.934;2023-04-25T01:26:14;6.72;;;3.80;;
77868;SDS011;67231;59.144;37.934;2023-04-25T01:28:41;6.57;;;3.92;;
77868;SDS011;67231;59.144;37.934;2023-04-25T01:31:09;8.35;;;3.75;;
77868;SDS011;67231;59.144;37.934;2023-04-25T01:33:37;6.28;;;3.90;;
77868;SDS011;67231;59.144;37.934;2023-04-25T01:36:04;6.63;;;3.53;;
77868;SDS011;67231;59.144;37.934;2023-04-25T01:38:31;8.95;;;3.60;;
77868;SDS011;67231;59.144;37.934;2023-04-25T01:40:58;6.80;;;3.92;;
77868;SDS011;67231;59.144;37.934;2023-04-25T01:43:24;9.13;;;3.70;;
77868;SDS011;67231;59.144;37.934;2023-04-25T01:45:52;8.82;;;3.95;;
77868;SDS011;67231;59.144;37.934;2023-04-25T01:48:19;8.93;;;3.60;;
77868;SDS011;67231;59.144;37.934;2023-04-25T01:50:46;6.82;;;3.40;;
77868;SDS011;67231;59.144;37.934;2023-04-25T01:53:13;4.70;;;3.03;;
77868;SDS011;67231;59.144;37.934;2023-04-25T01:55:42;7.68;;;3.33;;
77868;SDS011;67231;59.144;37.934;2023-04-25T01:58:12;9.57;;;4.30;;
77868;SDS011;67231;59.144;37.934;2023-04-25T02:00:58;14.73;;;5.50;;
77868;SDS011;67231;59.144;37.934;2023-04-25T02:03:30;6.70;;;4.00;;
77868;SDS011;67231;59.144;37.934;2023-04-25T02:05:58;6.82;;;3.92;;
77868;SDS011;67231;59.144;37.934;2023-04-25T02:08:25;13.13;;;6.03;;
77868;SDS011;67231;59.144;37.934;2023-04-25T02:10:54;11.60;;;4.63;;
77868;SDS011;67231;59.144;37.934;2023-04-25T02:13:22;8.75;;;3.78;;
77868;SDS011;67231;59.144;37.934;2023-04-25T02:16:02;9.15;;;3.60;;
77868;SDS011;67231;59.144;37.934;2023-04-25T02:18:29;7.45;;;4.47;;
77868;SDS011;67231;59.144;37.934;2023-04-25T02:21:00;9.00;;;3.70;;
77868;SDS011;67231;59.144;37.934;2023-04-25T02:23:27;7.28;;;3.70;;
77868;SDS011;67231;59.144;37.934;2023-04-25T02:25:54;5.63;;;3.47;;
77868;SDS011;67231;59.144;37.934;2023-04-25T02:28:23;6.30;;;3.72;;
77868;SDS011;67231;59.144;37.934;2023-04-25T02:30:51;9.93;;;4.20;;
77868;SDS011;67231;59.144;37.934;2023-04-25T02:33:18;11.40;;;4.70;;
77868;SDS011;67231;59.144;37.934;2023-04-25T02:35:44;8.05;;;4.40;;
77868;SDS011;67231;59.144;37.934;2023-04-25T02:38:10;8.57;;;4.35;;
77868;SDS011;67231;59.144;37.934;2023-04-25T02:40:36;8.82;;;4.28;;
77868;SDS011;67231;59.144;37.934;2023-04-25T02:43:03;6.32;;;4.00;;
77868;SDS011;67231;59.144;37.934;2023-04-25T02:45:29;7.88;;;4.60;;
77868;SDS011;67231;59.144;37.934;2023-04-25T02:47:55;7.57;;;3.92;;
77868;SDS011;67231;59.144;37.934;2023-04-25T02:50:21;9.48;;;4.15;;
77868;SDS011;67231;59.144;37.934;2023-04-25T02:52:48;9.65;;;4.05;;
77868;SDS011;67231;59.144;37.934;2023-04-25T02:55:18;8.52;;;3.80;;
77868;SDS011;67231;59.144;37.934;2023-04-25T02:57:46;7.20;;;3.90;;
77868;SDS011;67231;59.144;37.934;2023-04-25T03:00:20;9.00;;;3.90;;
77868;SDS011;67231;59.144;37.934;2023-04-25T03:02:46;5.55;;;3.58;;
77868;SDS011;67231;59.144;37.934;2023-04-25T03:05:12;6.47;;;3.83;;
77868;SDS011;67231;59.144;37.934;2023-04-25T03:07:41;6.88;;;3.60;;
77868;SDS011;67231;59.144;37.934;2023-04-25T03:10:10;7.95;;;4.00;;
77868;SDS011;67231;59.144;37.934;2023-04-25T03:12:37;11.10;;;4.13;;
77868;SDS011;67231;59.144;37.934;2023-04-25T03:15:04;6.93;;;4.25;;
77868;SDS011;67231;59.144;37.934;2023-04-25T03:17:32;10.07;;;3.90;;
77868;SDS011;67231;59.144;37.934;2023-04-25T03:19:58;6.35;;;3.88;;
77868;SDS011;67231;59.144;37.934;2023-04-25T03:22:25;8.25;;;3.90;;
77868;SDS011;67231;59.144;37.934;2023-04-25T03:24:52;8.73;;;3.95;;
77868;SDS011;67231;59.144;37.934;2023-04-25T03:27:19;10.50;;;4.22;;
77868;SDS011;67231;59.144;37.934;2023-04-25T03:29:45;8.80;;;4.30;;
77868;SDS011;67231;59.144;37.934;2023-04-25T03:32:12;9.88;;;4.32;;
77868;SDS011;67231;59.144;37.934;2023-04-25T03:34:38;8.77;;;4.50;;
77868;SDS011;67231;59.144;37.934;2023-04-25T03:37:05;14.07;;;4.72;;
77868;SDS011;67231;59.144;37.934;2023-04-25T03:39:36;8.13;;;4.28;;
77868;SDS011;67231;59.144;37.934;2023-04-25T03:42:03;12.00;;;4.13;;
77868;SDS011;67231;59.144;37.934;2023-04-25T03:44:29;8.32;;;4.18;;
77868;SDS011;67231;59.144;37.934;2023-04-25T03:46:55;17.77;;;5.15;;
77868;SDS011;67231;59.144;37.934;2023-04-25T03:49:23;10.80;;;4.78;;
77868;SDS011;67231;59.144;37.934;2023-04-25T03:52:01;9.50;;;4.22;;
77868;SDS011;67231;59.144;37.934;2023-04-25T03:54:33;15.02;;;4.72;;
77868;SDS011;67231;59.144;37.934;2023-04-25T03:57:19;11.90;;;4.47;;
77868;SDS011;67231;59.144;37.934;2023-04-25T03:59:45;12.18;;;4.32;;
77868;SDS011;67231;59.144;37.934;2023-04-25T04:02:13;15.50;;;4.97;;
77868;SDS011;67231;59.144;37.934;2023-04-25T04:04:41;10.13;;;4.40;;
77868;SDS011;67231;59.144;37.934;2023-04-25T04:07:09;9.77;;;4.10;;
77868;SDS011;67231;59.144;37.934;2023-04-25T04:09:40;10.52;;;4.10;;
77868;SDS011;67231;59.144;37.934;2023-04-25T04:12:09;9.32;;;4.70;;
77868;SDS011;67231;59.144;37.934;2023-04-25T04:14:38;11.20;;;4.00;;
77868;SDS011;67231;59.144;37.934;2023-04-25T04:17:04;13.70;;;4.30;;
77868;SDS011;67231;59.144;37.934;2023-04-25T04:19:32;9.90;;;4.40;;
77868;SDS011;67231;59.144;37.934;2023-04-25T04:22:05;12.68;;;4.40;;
77868;SDS011;67231;59.144;37.934;2023-04-25T04:24:31;11.10;;;4.22;;
77868;SDS011;67231;59.144;37.934;2023-04-25T04:27:02;8.75;;;4.22;;
77868;SDS011;67231;59.144;37.934;2023-04-25T04:29:33;8.90;;;4.15;;
77868;SDS011;67231;59.144;37.934;2023-04-25T04:32:12;10.23;;;4.50;;
77868;SDS011;67231;59.144;37.934;2023-04-25T04:34:39;11.57;;;4.28;;
77868;SDS011;67231;59.144;37.934;2023-04-25T04:37:07;12.43;;;4.63;;
77868;SDS011;67231;59.144;37.934;2023-04-25T04:39:35;8.65;;;4.15;;
77868;SDS011;67231;59.144;37.934;2023-04-25T04:42:31;13.45;;;4.20;;
77868;SDS011;67231;59.144;37.934;2023-04-25T04:45:07;9.85;;;4.75;;
77868;SDS011;67231;59.144;37.934;2023-04-25T04:47:46;9.82;;;4.18;;
77868;SDS011;67231;59.144;37.934;2023-04-25T04:50:32;8.00;;;4.40;;
77868;SDS011;67231;59.144;37.934;2023-04-25T04:53:24;9.48;;;4.57;;
77868;SDS011;67231;59.144;37.934;2023-04-25T04:56:09;9.63;;;5.05;;
77868;SDS011;67231;59.144;37.934;2023-04-25T04:58:49;11.25;;;4.50;;
77868;SDS011;67231;59.144;37.934;2023-04-25T05:01:25;15.48;;;5.63;;
77868;SDS011;67231;59.144;37.934;2023-04-25T05:04:15;14.10;;;4.97;;
77868;SDS011;67231;59.144;37.934;2023-04-25T05:06:55;10.38;;;4.72;;
77868;SDS011;67231;59.144;37.934;2023-04-25T05:09:31;15.02;;;5.30;;
77868;SDS011;67231;59.144;37.934;2023-04-25T05:12:23;14.88;;;5.15;;
77868;SDS011;67231;59.144;37.934;2023-04-25T05:14:49;13.82;;;4.50;;
77868;SDS011;67231;59.144;37.934;2023-04-25T05:17:49;16.08;;;4.38;;
77868;SDS011;67231;59.144;37.934;2023-04-25T05:20:40;15.93;;;4.68;;
77868;SDS011;67231;59.144;37.934;2023-04-25T05:23:39;9.43;;;4.80;;
77868;SDS011;67231;59.144;37.934;2023-04-25T05:26:33;12.77;;;5.10;;
77868;SDS011;67231;59.144;37.934;2023-04-25T05:29:06;11.40;;;4.60;;
77868;SDS011;67231;59.144;37.934;2023-04-25T05:31:41;17.67;;;5.55;;
77868;SDS011;67231;59.144;37.934;2023-04-25T05:34:10;18.65;;;4.63;;
77868;SDS011;67231;59.144;37.934;2023-04-25T05:36:52;12.13;;;4.95;;
77868;SDS011;67231;59.144;37.934;2023-04-25T05:39:19;11.77;;;4.47;;
77868;SDS011;67231;59.144;37.934;2023-04-25T05:42:04;10.32;;;4.80;;
77868;SDS011;67231;59.144;37.934;2023-04-25T05:44:48;13.77;;;4.85;;
77868;SDS011;67231;59.144;37.934;2023-04-25T05:47:25;17.83;;;5.65;;
77868;SDS011;67231;59.144;37.934;2023-04-25T05:50:15;14.57;;;5.03;;
77868;SDS011;67231;59.144;37.934;2023-04-25T05:53:13;13.95;;;5.30;;
77868;SDS011;67231;59.144;37.934;2023-04-25T05:55:42;14.30;;;4.78;;
77868;SDS011;67231;59.144;37.934;2023-04-25T05:58:26;12.45;;;5.07;;
77868;SDS011;67231;59.144;37.934;2023-04-25T06:00:54;14.48;;;5.80;;
77868;SDS011;67231;59.144;37.934;2023-04-25T06:03:21;14.25;;;4.90;;
77868;SDS011;67231;59.144;37.934;2023-04-25T06:05:48;11.88;;;5.03;;
77868;SDS011;67231;59.144;37.934;2023-04-25T06:08:14;12.77;;;5.30;;
77868;SDS011;67231;59.144;37.934;2023-04-25T06:10:41;14.52;;;5.03;;
77868;SDS011;67231;59.144;37.934;2023-04-25T06:13:07;8.60;;;4.80;;
77868;SDS011;67231;59.144;37.934;2023-04-25T06:15:35;14.63;;;4.75;;
77868;SDS011;67231;59.144;37.934;2023-04-25T06:18:01;11.43;;;4.55;;
77868;SDS011;67231;59.144;37.934;2023-04-25T06:20:27;12.48;;;5.03;;
77868;SDS011;67231;59.144;37.934;2023-04-25T06:25:35;11.10;;;5.60;;
77868;SDS011;67231;59.144;37.934;2023-04-25T06:28:01;13.90;;;4.85;;
77868;SDS011;67231;59.144;37.934;2023-04-25T06:30:28;11.45;;;5.05;;
77868;SDS011;67231;59.144;37.934;2023-04-25T06:33:01;15.57;;;5.15;;
77868;SDS011;67231;59.144;37.934;2023-04-25T06:35:29;11.05;;;5.25;;
77868;SDS011;67231;59.144;37.934;2023-04-25T06:37:55;16.50;;;5.07;;
77868;SDS011;67231;59.144;37.934;2023-04-25T06:40:23;13.02;;;5.10;;
77868;SDS011;67231;59.144;37.934;2023-04-25T06:42:49;10.75;;;4.97;;
77868;SDS011;67231;59.144;37.934;2023-04-25T06:45:45;9.38;;;4.85;;
77868;SDS011;67231;59.144;37.934;2023-04-25T06:48:12;12.73;;;4.72;;
77868;SDS011;67231;59.144;37.934;2023-04-25T06:50:38;9.50;;;4.20;;
77868;SDS011;67231;59.144;37.934;2023-04-25T06:53:04;10.52;;;4.50;;
77868;SDS011;67231;59.144;37.934;2023-04-25T06:55:30;14.00;;;4.70;;
77868;SDS011;67231;59.144;37.934;2023-04-25T06:58:07;12.13;;;5.05;;
77868;SDS011;67231;59.144;37.934;2023-04-25T07:00:52;10.60;;;4.95;;
77868;SDS011;67231;59.144;37.934;2023-04-25T07:03:20;14.85;;;5.35;;
77868;SDS011;67231;59.144;37.934;2023-04-25T07:05:47;9.77;;;4.30;;
77868;SDS011;67231;59.144;37.934;2023-04-25T07:08:13;9.70;;;4.40;;
77868;SDS011;67231;59.144;37.934;2023-04-25T07:10:39;8.98;;;4.68;;
77868;SDS011;67231;59.144;37.934;2023-04-25T07:13:06;8.48;;;4.35;;
77868;SDS011;67231;59.144;37.934;2023-04-25T07:15:32;11.85;;;4.50;;
77868;SDS011;67231;59.144;37.934;2023-04-25T07:18:00;9.52;;;4.85;;
77868;SDS011;67231;59.144;37.934;2023-04-25T07:20:26;9.95;;;4.45;;
77868;SDS011;67231;59.144;37.934;2023-04-25T07:22:53;6.78;;;4.45;;
77868;SDS011;67231;59.144;37.934;2023-04-25T07:25:20;11.43;;;4.90;;
77868;SDS011;67231;59.144;37.934;2023-04-25T07:27:46;10.38;;;4.50;;
77868;SDS011;67231;59.144;37.934;2023-04-25T07:30:16;7.60;;;4.57;;
77868;SDS011;67231;59.144;37.934;2023-04-25T07:32:42;8.98;;;4.95;;
77868;SDS011;67231;59.144;37.934;2023-04-25T07:35:09;13.85;;;4.78;;
77868;SDS011;67231;59.144;37.934;2023-04-25T07:37:35;10.48;;;4.90;;
77868;SDS011;67231;59.144;37.934;2023-04-25T07:40:08;12.57;;;4.93;;
77868;SDS011;67231;59.144;37.934;2023-04-25T07:42:37;11.80;;;5.20;;
77868;SDS011;67231;59.144;37.934;2023-04-25T07:45:05;13.05;;;5.03;;
77868;SDS011;67231;59.144;37.934;2023-04-25T07:47:32;11.88;;;5.30;;
77868;SDS011;67231;59.144;37.934;2023-04-25T07:49:58;20.27;;;5.25;;
77868;SDS011;67231;59.144;37.934;2023-04-25T07:52:24;14.77;;;5.45;;
77868;SDS011;67231;59.144;37.934;2023-04-25T07:54:59;9.40;;;5.97;;
77868;SDS011;67231;59.144;37.934;2023-04-25T07:57:34;12.25;;;5.15;;
77868;SDS011;67231;59.144;37.934;2023-04-25T08:00:01;13.05;;;5.28;;
77868;SDS011;67231;59.144;37.934;2023-04-25T08:02:31;13.32;;;5.38;;
77868;SDS011;67231;59.144;37.934;2023-04-25T08:04:58;13.18;;;5.60;;
77868;SDS011;67231;59.144;37.934;2023-04-25T08:07:24;12.18;;;5.05;;
77868;SDS011;67231;59.144;37.934;2023-04-25T08:09:54;8.27;;;4.93;;
77868;SDS011;67231;59.144;37.934;2023-04-25T08:12:31;8.65;;;5.22;;
77868;SDS011;67231;59.144;37.934;2023-04-25T08:14:58;8.75;;;5.05;;
77868;SDS011;67231;59.144;37.934;2023-04-25T08:17:31;12.00;;;5.57;;
77868;SDS011;67231;59.144;37.934;2023-04-25T08:19:57;16.95;;;5.38;;
77868;SDS011;67231;59.144;37.934;2023-04-25T08:22:30;11.50;;;5.47;;
77868;SDS011;67231;59.144;37.934;2023-04-25T08:25:17;13.50;;;5.63;;
77868;SDS011;67231;59.144;37.934;2023-04-25T08:27:43;14.65;;;5.55;;
77868;SDS011;67231;59.144;37.934;2023-04-25T08:30:10;10.68;;;5.60;;
77868;SDS011;67231;59.144;37.934;2023-04-25T08:32:38;8.07;;;5.32;;
77868;SDS011;67231;59.144;37.934;2023-04-25T08:35:24;12.18;;;5.40;;
77868;SDS011;67231;59.144;37.934;2023-04-25T08:37:51;12.57;;;5.68;;
77868;SDS011;67231;59.144;37.934;2023-04-25T08:40:17;12.68;;;5.15;;
77868;SDS011;67231;59.144;37.934;2023-04-25T08:42:54;12.63;;;6.53;;
77868;SDS011;67231;59.144;37.934;2023-04-25T08:45:25;14.88;;;5.38;;
77868;SDS011;67231;59.144;37.934;2023-04-25T08:47:53;14.75;;;5.53;;
77868;SDS011;67231;59.144;37.934;2023-04-25T08:52:50;11.60;;;5.10;;
77868;SDS011;67231;59.144;37.934;2023-04-25T08:55:20;14.45;;;5.38;;
77868;SDS011;67231;59.144;37.934;2023-04-25T08:57:50;10.90;;;4.97;;
77868;SDS011;67231;59.144;37.934;2023-04-25T09:00:17;10.38;;;5.07;;
77868;SDS011;67231;59.144;37.934;2023-04-25T09:02:46;11.32;;;5.22;;
77868;SDS011;67231;59.144;37.934;2023-04-25T09:05:13;10.38;;;4.55;;
77868;SDS011;67231;59.144;37.934;2023-04-25T09:07:40;9.90;;;4.80;;
77868;SDS011;67231;59.144;37.934;2023-04-25T09:10:07;9.45;;;5.28;;
77868;SDS011;67231;59.144;37.934;2023-04-25T09:12:36;8.88;;;4.97;;
77868;SDS011;67231;59.144;37.934;2023-04-25T09:15:08;9.73;;;5.10;;
77868;SDS011;67231;59.144;37.934;2023-04-25T09:18:01;9.48;;;4.90;;
77868;SDS011;67231;59.144;37.934;2023-04-25T09:20:42;10.27;;;5.15;;
77868;SDS011;67231;59.144;37.934;2023-04-25T09:23:11;10.82;;;5.25;;
77868;SDS011;67231;59.144;37.934;2023-04-25T09:25:38;10.20;;;5.35;;
77868;SDS011;67231;59.144;37.934;2023-04-25T09:28:10;12.77;;;5.50;;
77868;SDS011;67231;59.144;37.934;2023-04-25T09:30:37;10.88;;;5.35;;
77868;SDS011;67231;59.144;37.934;2023-04-25T09:33:30;10.75;;;5.43;;
77868;SDS011;67231;59.144;37.934;2023-04-25T09:36:03;13.02;;;5.82;;
77868;SDS011;67231;59.144;37.934;2023-04-25T09:38:56;8.95;;;5.28;;
77868;SDS011;67231;59.144;37.934;2023-04-25T09:41:29;10.43;;;5.35;;
77868;SDS011;67231;59.144;37.934;2023-04-25T09:43:59;8.02;;;4.82;;
77868;SDS011;67231;59.144;37.934;2023-04-25T09:46:33;9.27;;;4.55;;
77868;SDS011;67231;59.144;37.934;2023-04-25T09:49:06;10.65;;;4.95;;
77868;SDS011;67231;59.144;37.934;2023-04-25T09:51:43;7.10;;;4.45;;
77868;SDS011;67231;59.144;37.934;2023-04-25T09:54:21;8.40;;;4.72;;
77868;SDS011;67231;59.144;37.934;2023-04-25T09:56:51;9.07;;;4.32;;
77868;SDS011;67231;59.144;37.934;2023-04-25T09:59:20;8.55;;;4.40;;
77868;SDS011;67231;59.144;37.934;2023-04-25T10:01:50;7.97;;;4.90;;
77868;SDS011;67231;59.144;37.934;2023-04-25T10:04:28;9.75;;;5.57;;
77868;SDS011;67231;59.144;37.934;2023-04-25T10:07:19;11.13;;;5.40;;
77868;SDS011;67231;59.144;37.934;2023-04-25T10:09:54;9.15;;;4.75;;
77868;SDS011;67231;59.144;37.934;2023-04-25T10:12:25;8.75;;;5.28;;
77868;SDS011;67231;59.144;37.934;2023-04-25T10:14:52;8.75;;;4.28;;
77868;SDS011;67231;59.144;37.934;2023-04-25T10:17:20;10.57;;;4.90;;
77868;SDS011;67231;59.144;37.934;2023-04-25T10:19:47;9.93;;;4.78;;
77868;SDS011;67231;59.144;37.934;2023-04-25T10:22:29;9.48;;;5.00;;
77868;SDS011;67231;59.144;37.934;2023-04-25T10:24:58;14.25;;;5.00;;
77868;SDS011;67231;59.144;37.934;2023-04-25T10:27:27;11.38;;;5.25;;
77868;SDS011;67231;59.144;37.934;2023-04-25T10:30:03;11.25;;;4.90;;
77868;SDS011;67231;59.144;37.934;2023-04-25T10:32:32;7.97;;;4.72;;
77868;SDS011;67231;59.144;37.934;2023-04-25T10:35:09;11.30;;;5.10;;
77868;SDS011;67231;59.144;37.934;2023-04-25T10:40:29;9.88;;;5.18;;
77868;SDS011;67231;59.144;37.934;2023-04-25T10:42:55;10.05;;;5.00;;
77868;SDS011;67231;59.144;37.934;2023-04-25T10:45:57;9.60;;;4.85;;
77868;SDS011;67231;59.144;37.934;2023-04-25T10:48:26;13.23;;;5.35;;
77868;SDS011;67231;59.144;37.934;2023-04-25T10:51:08;8.32;;;4.47;;
77868;SDS011;67231;59.144;37.934;2023-04-25T10:53:35;11.32;;;4.97;;
77868;SDS011;67231;59.144;37.934;2023-04-25T10:56:17;9.38;;;5.15;;
77868;SDS011;67231;59.144;37.934;2023-04-25T10:58:45;11.27;;;5.00;;
77868;SDS011;67231;59.144;37.934;2023-04-25T11:01:12;10.65;;;4.32;;
77868;SDS011;67231;59.144;37.934;2023-04-25T11:03:40;8.77;;;4.80;;
77868;SDS011;67231;59.144;37.934;2023-04-25T11:06:34;7.70;;;4.90;;
77868;SDS011;67231;59.144;37.934;2023-04-25T11:09:12;7.43;;;5.05;;
77868;SDS011;67231;59.144;37.934;2023-04-25T11:11:39;8.43;;;4.90;;
77868;SDS011;67231;59.144;37.934;2023-04-25T11:14:05;10.15;;;4.80;;
77868;SDS011;67231;59.144;37.934;2023-04-25T11:16:32;11.98;;;4.40;;
77868;SDS011;67231;59.144;37.934;2023-04-25T11:18:58;8.98;;;4.80;;
77868;SDS011;67231;59.144;37.934;2023-04-25T11:21:25;8.60;;;4.63;;
77868;SDS011;67231;59.144;37.934;2023-04-25T11:23:56;13.23;;;4.45;;
77868;SDS011;67231;59.144;37.934;2023-04-25T11:26:23;10.52;;;4.63;;
77868;SDS011;67231;59.144;37.934;2023-04-25T11:28:50;8.95;;;4.50;;
77868;SDS011;67231;59.144;37.934;2023-04-25T11:31:19;12.48;;;5.00;;
77868;SDS011;67231;59.144;37.934;2023-04-25T11:33:47;10.38;;;4.75;;
77868;SDS011;67231;59.144;37.934;2023-04-25T11:36:13;9.75;;;4.47;;
77868;SDS011;67231;59.144;37.934;2023-04-25T11:38:39;8.57;;;4.38;;
77868;SDS011;67231;59.144;37.934;2023-04-25T11:41:06;13.65;;;4.72;;
77868;SDS011;67231;59.144;37.934;2023-04-25T11:43:33;11.60;;;5.07;;
77868;SDS011;67231;59.144;37.934;2023-04-25T11:45:59;9.18;;;4.78;;
77868;SDS011;67231;59.144;37.934;2023-04-25T11:48:25;7.43;;;4.75;;
77868;SDS011;67231;59.144;37.934;2023-04-25T11:50:51;9.90;;;4.75;;
77868;SDS011;67231;59.144;37.934;2023-04-25T11:53:19;13.02;;;5.00;;
77868;SDS011;67231;59.144;37.934;2023-04-25T11:55:46;10.10;;;4.70;;
77868;SDS011;67231;59.144;37.934;2023-04-25T11:58:12;7.80;;;4.18;;
77868;SDS011;67231;59.144;37.934;2023-04-25T12:00:41;7.82;;;4.63;;
77868;SDS011;67231;59.144;37.934;2023-04-25T12:03:08;8.38;;;4.20;;
77868;SDS011;67231;59.144;37.934;2023-04-25T12:05:35;9.20;;;4.50;;
77868;SDS011;67231;59.144;37.934;2023-04-25T12:08:13;11.07;;;4.20;;
77868;SDS011;67231;59.144;37.934;2023-04-25T12:10:40;7.70;;;4.07;;
77868;SDS011;67231;59.144;37.934;2023-04-25T12:13:21;7.47;;;3.88;;
77868;SDS011;67231;59.144;37.934;2023-04-25T12:15:49;10.30;;;4.55;;
77868;SDS011;67231;59.144;37.934;2023-04-25T12:18:18;8.77;;;4.32;;
77868;SDS011;67231;59.144;37.934;2023-04-25T12:20:46;7.47;;;3.80;;
77868;SDS011;67231;59.144;37.934;2023-04-25T12:23:12;6.90;;;4.22;;
77868;SDS011;67231;59.144;37.934;2023-04-25T12:25:42;9.70;;;4.40;;
77868;SDS011;67231;59.144;37.934;2023-04-25T12:33:32;9.07;;;4.35;;
77868;SDS011;67231;59.144;37.934;2023-04-25T12:36:00;9.30;;;4.13;;
77868;SDS011;67231;59.144;37.934;2023-04-25T12:38:38;6.93;;;4.55;;
77868;SDS011;67231;59.144;37.934;2023-04-25T12:41:06;9.35;;;4.03;;
77868;SDS011;67231;59.144;37.934;2023-04-25T12:43:32;6.88;;;4.30;;
77868;SDS011;67231;59.144;37.934;2023-04-25T12:45:59;5.72;;;3.70;;
77868;SDS011;67231;59.144;37.934;2023-04-25T12:48:26;5.65;;;3.75;;
77868;SDS011;67231;59.144;37.934;2023-04-25T12:50:52;7.00;;;4.10;;
77868;SDS011;67231;59.144;37.934;2023-04-25T12:53:19;8.13;;;4.03;;
77868;SDS011;67231;59.144;37.934;2023-04-25T12:55:47;10.00;;;4.20;;
77868;SDS011;67231;59.144;37.934;2023-04-25T12:58:14;6.10;;;4.03;;
77868;SDS011;67231;59.144;37.934;2023-04-25T13:00:41;10.55;;;3.80;;
77868;SDS011;67231;59.144;37.934;2023-04-25T13:03:08;5.88;;;4.15;;
77868;SDS011;67231;59.144;37.934;2023-04-25T13:05:37;6.95;;;4.32;;
77868;SDS011;67231;59.144;37.934;2023-04-25T13:08:03;6.22;;;3.85;;
77868;SDS011;67231;59.144;37.934;2023-04-25T13:10:30;11.60;;;4.70;;
77868;SDS011;67231;59.144;37.934;2023-04-25T13:15:27;9.57;;;4.22;;
77868;SDS011;67231;59.144;37.934;2023-04-25T13:17:53;9.38;;;4.50;;
77868;SDS011;67231;59.144;37.934;2023-04-25T13:20:19;8.95;;;4.13;;
77868;SDS011;67231;59.144;37.934;2023-04-25T13:25:14;8.15;;;4.28;;
77868;SDS011;67231;59.144;37.934;2023-04-25T13:27:41;5.15;;;3.65;;
77868;SDS011;67231;59.144;37.934;2023-04-25T13:30:10;7.60;;;4.15;;
77868;SDS011;67231;59.144;37.934;2023-04-25T13:32:36;4.90;;;3.47;;
77868;SDS011;67231;59.144;37.934;2023-04-25T13:35:04;8.82;;;4.20;;
77868;SDS011;67231;59.144;37.934;2023-04-25T13:37:32;9.02;;;4.30;;
77868;SDS011;67231;59.144;37.934;2023-04-25T13:39:59;7.93;;;4.00;;
77868;SDS011;67231;59.144;37.934;2023-04-25T13:42:31;8.25;;;4.05;;
77868;SDS011;67231;59.144;37.934;2023-04-25T13:44:58;6.32;;;3.80;;
77868;SDS011;67231;59.144;37.934;2023-04-25T13:47:25;11.40;;;4.00;;
77868;SDS011;67231;59.144;37.934;2023-04-25T13:49:52;7.63;;;3.67;;
77868;SDS011;67231;59.144;37.934;2023-04-25T13:52:18;7.45;;;3.58;;
77868;SDS011;67231;59.144;37.934;2023-04-25T13:54:45;8.90;;;3.97;;
77868;SDS011;67231;59.144;37.934;2023-04-25T13:57:11;5.03;;;3.63;;
77868;SDS011;67231;59.144;37.934;2023-04-25T13:59:38;9.77;;;3.92;;
77868;SDS011;67231;59.144;37.934;2023-04-25T14:02:06;7.43;;;3.92;;
77868;SDS011;67231;59.144;37.934;2023-04-25T14:04:33;13.02;;;4.43;;
77868;SDS011;67231;59.144;37.934;2023-04-25T14:06:59;17.85;;;4.97;;
77868;SDS011;67231;59.144;37.934;2023-04-25T14:09:26;10.15;;;4.07;;
77868;SDS011;67231;59.144;37.934;2023-04-25T14:11:53;4.93;;;3.70;;
77868;SDS011;67231;59.144;37.934;2023-04-25T14:14:19;5.70;;;3.75;;
77868;SDS011;67231;59.144;37.934;2023-04-25T14:16:47;8.38;;;3.45;;
77868;SDS011;67231;59.144;37.934;2023-04-25T14:19:14;9.10;;;3.50;;
77868;SDS011;67231;59.144;37.934;2023-04-25T14:21:41;7.85;;;3.67;;
77868;SDS011;67231;59.144;37.934;2023-04-25T14:24:10;10.68;;;3.70;;
77868;SDS011;67231;59.144;37.934;2023-04-25T14:26:37;9.88;;;3.55;;
77868;SDS011;67231;59.144;37.934;2023-04-25T14:29:03;8.63;;;3.47;;
77868;SDS011;67231;59.144;37.934;2023-04-25T14:31:31;7.43;;;3.30;;
77868;SDS011;67231;59.144;37.934;2023-04-25T14:33:57;7.32;;;3.22;;
77868;SDS011;67231;59.144;37.934;2023-04-25T14:36:24;4.90;;;3.08;;
77868;SDS011;67231;59.144;37.934;2023-04-25T14:38:52;8.65;;;3.03;;
77868;SDS011;67231;59.144;37.934;2023-04-25T14:41:18;15.02;;;3.55;;
77868;SDS011;67231;59.144;37.934;2023-04-25T14:43:44;9.95;;;3.30;;
77868;SDS011;67231;59.144;37.934;2023-04-25T14:46:11;6.15;;;3.05;;
77868;SDS011;67231;59.144;37.934;2023-04-25T14:48:37;5.40;;;3.08;;
77868;SDS011;67231;59.144;37.934;2023-04-25T14:51:04;7.75;;;3.35;;
77868;SDS011;67231;59.144;37.934;2023-04-25T14:53:31;10.00;;;3.55;;
77868;SDS011;67231;59.144;37.934;2023-04-25T14:55:57;10.27;;;3.33;;
77868;SDS011;67231;59.144;37.934;2023-04-25T14:58:24;6.68;;;3.45;;
77868;SDS011;67231;59.144;37.934;2023-04-25T15:00:50;7.40;;;3.15;;
77868;SDS011;67231;59.144;37.934;2023-04-25T15:03:16;8.57;;;3.53;;